Time;durP1;ratioP1;P1;durP2;ratioP2;P2;SDS_P1;SDS_P2;PMS_P1;PMS_P2;Temp;Humidity;BMP_temperature;BMP_pressure;BME280_temperature;BME280_humidity;BME280_pressure;Samples;Min_cycle;Max_cycle;Signal;HPM_P1;HPM_P2
2022/04/27 00:00:10;;;;;;;3.83;2.22;;;19.80;47.30;;;;;;6344722;28;20104;-71
2022/04/27 00:03:11;;;;;;;4.07;2.30;;;19.80;47.30;;;;;;6344272;28;20038;-70
2022/04/27 00:06:13;;;;;;;3.47;2.08;;;19.80;47.30;;;;;;6326246;28;20059;-71
2022/04/27 00:09:15;;;;;;;4.97;2.25;;;19.80;47.30;;;;;;6344401;28;20023;-71
2022/04/27 00:12:18;;;;;;;3.55;2.00;;;19.80;47.30;;;;;;6344902;28;20087;-71
2022/04/27 00:15:25;;;;;;;5.00;2.28;;;19.80;47.30;;;;;;6326186;28;20020;-71
2022/04/27 00:18:26;;;;;;;4.55;2.22;;;19.80;47.30;;;;;;6344387;28;20475;-71
2022/04/27 00:21:27;;;;;;;3.33;2.00;;;19.80;47.30;;;;;;6344329;28;20032;-71
2022/04/27 00:24:27;;;;;;;3.20;2.17;;;19.80;47.30;;;;;;6325983;28;20028;-71
2022/04/27 00:27:28;;;;;;;3.53;2.22;;;19.80;47.30;;;;;;6343970;28;20367;-71
2022/04/27 00:30:29;;;;;;;3.10;1.67;;;19.90;47.40;;;;;;6343835;28;20034;-71
2022/04/27 00:33:31;;;;;;;4.45;2.22;;;19.80;47.40;;;;;;6325914;28;20493;-71
2022/04/27 00:36:31;;;;;;;2.88;2.10;;;19.80;47.30;;;;;;6344112;28;20428;-71
2022/04/27 00:39:33;;;;;;;2.75;1.80;;;19.80;47.40;;;;;;6344085;28;20108;-71
2022/04/27 00:42:33;;;;;;;3.17;2.00;;;19.80;47.40;;;;;;6343994;28;20069;-71
2022/04/27 00:45:34;;;;;;;4.30;2.28;;;19.80;47.40;;;;;;6325465;28;20015;-71
2022/04/27 00:48:36;;;;;;;3.33;1.75;;;19.80;47.40;;;;;;6343426;28;20024;-71
2022/04/27 00:51:38;;;;;;;4.00;1.80;;;19.80;47.30;;;;;;6343976;28;20015;-71
2022/04/27 00:54:41;;;;;;;3.20;1.80;;;19.80;47.40;;;;;;6343894;28;20099;-71
2022/04/27 00:57:46;;;;;;;4.50;2.13;;;19.80;47.40;;;;;;6343794;28;20039;-71
2022/04/27 01:00:47;;;;;;;2.35;1.60;;;19.80;47.40;;;;;;6343488;28;20035;-71
2022/04/27 01:03:47;;;;;;;3.53;1.73;;;19.80;47.40;;;;;;6343886;28;20438;-71
2022/04/27 01:06:48;;;;;;;2.60;1.70;;;19.80;47.40;;;;;;6343640;28;20024;-71
2022/04/27 01:09:50;;;;;;;3.83;1.90;;;19.80;47.40;;;;;;6343768;28;20398;-72
2022/04/27 01:12:50;;;;;;;2.28;1.50;;;19.80;47.50;;;;;;6347701;28;20015;-71
2022/04/27 01:15:51;;;;;;;3.08;1.65;;;19.80;47.40;;;;;;6330244;28;20576;-71
2022/04/27 01:18:52;;;;;;;2.65;1.40;;;19.80;47.40;;;;;;6348309;28;20020;-71
2022/04/27 01:21:54;;;;;;;2.97;1.70;;;19.80;47.50;;;;;;6348580;28;20110;-71
2022/04/27 01:24:57;;;;;;;2.78;1.60;;;19.80;47.50;;;;;;6348034;28;20502;-71
2022/04/27 01:27:57;;;;;;;3.05;1.60;;;19.80;47.40;;;;;;6348194;28;20130;-71
2022/04/27 01:31:06;;;;;;;3.42;1.70;;;19.80;47.40;;;;;;6331367;28;20020;-71
2022/04/27 01:34:07;;;;;;;1.92;1.20;;;19.80;47.40;;;;;;6323214;28;20053;-72
2022/04/27 01:40:26;;;;;;;2.10;1.40;;;19.80;47.50;;;;;;6347997;28;20047;-71
2022/04/27 01:43:27;;;;;;;2.20;1.40;;;19.80;47.50;;;;;;6329651;28;20069;-71
2022/04/27 01:46:28;;;;;;;2.35;1.50;;;19.80;47.50;;;;;;6329632;28;20020;-71
2022/04/27 01:49:29;;;;;;;2.63;1.40;;;19.80;47.40;;;;;;6347077;28;20026;-71
2022/04/27 01:55:50;;;;;;;2.05;1.38;;;19.80;47.50;;;;;;6347243;28;20020;-71
2022/04/27 01:58:51;;;;;;;2.55;1.20;;;19.80;47.40;;;;;;6346827;28;20521;-71
2022/04/27 02:01:53;;;;;;;1.95;1.40;;;19.80;47.40;;;;;;6328874;28;20015;-71
2022/04/27 02:04:54;;;;;;;2.85;1.52;;;19.80;47.50;;;;;;6328804;28;20024;-71
2022/04/27 02:07:55;;;;;;;2.17;1.25;;;19.80;47.50;;;;;;6346642;28;20020;-71
2022/04/27 02:10:55;;;;;;;2.13;1.40;;;19.80;48.20;;;;;;6346606;28;20051;-71
2022/04/27 02:13:56;;;;;;;2.63;1.70;;;19.80;47.50;;;;;;6346608;28;20102;-71
2022/04/27 02:16:57;;;;;;;2.22;1.40;;;19.80;47.50;;;;;;6328780;28;20020;-71
2022/04/27 02:19:58;;;;;;;2.33;1.40;;;19.80;47.50;;;;;;6346714;28;20714;-70
2022/04/27 02:22:58;;;;;;;2.40;1.70;;;19.80;47.60;;;;;;6328318;28;20027;-71
2022/04/27 02:26:01;;;;;;;2.47;1.30;;;19.80;47.50;;;;;;6328147;28;20023;-71
2022/04/27 02:29:02;;;;;;;2.58;1.58;;;19.80;47.50;;;;;;6345999;28;20016;-72
2022/04/27 02:32:03;;;;;;;2.53;1.38;;;19.80;47.50;;;;;;6346078;28;20023;-71
2022/04/27 02:35:05;;;;;;;2.13;1.33;;;19.80;47.50;;;;;;6346085;28;20012;-71
2022/04/27 02:38:05;;;;;;;2.10;1.23;;;19.80;47.50;;;;;;6345997;28;20024;-71
2022/04/27 02:41:06;;;;;;;1.42;1.00;;;19.80;47.50;;;;;;6346065;28;20047;-71
2022/04/27 02:44:07;;;;;;;1.83;1.20;;;19.80;47.60;;;;;;6345913;28;20062;-71
2022/04/27 02:47:08;;;;;;;2.63;1.30;;;19.80;47.50;;;;;;6345944;28;20027;-72
2022/04/27 02:53:28;;;;;;;2.05;1.38;;;19.80;47.60;;;;;;6345575;28;20015;-71
2022/04/27 02:56:29;;;;;;;1.73;1.30;;;19.80;47.50;;;;;;6345617;28;20023;-71
2022/04/27 02:59:29;;;;;;;1.85;1.17;;;19.80;47.60;;;;;;6345412;28;20027;-73
2022/04/27 03:02:30;;;;;;;2.40;1.38;;;19.80;47.60;;;;;;6346139;28;20054;-71
2022/04/27 03:05:30;;;;;;;1.80;1.13;;;19.80;47.50;;;;;;6346101;28;20024;-71
2022/04/27 03:08:31;;;;;;;1.58;1.02;;;19.80;47.60;;;;;;6327663;28;20034;-71
2022/04/27 03:11:32;;;;;;;1.52;1.13;;;19.80;47.60;;;;;;6345296;28;20027;-71
2022/04/27 03:14:33;;;;;;;1.42;0.98;;;19.80;47.50;;;;;;6345216;28;20031;-71
2022/04/27 03:17:33;;;;;;;1.52;1.10;;;19.80;47.60;;;;;;6327005;28;20076;-71
2022/04/27 03:20:34;;;;;;;1.70;1.20;;;19.80;47.60;;;;;;6326653;28;20031;-71
2022/04/27 03:23:35;;;;;;;1.80;1.20;;;19.80;48.20;;;;;;6344418;28;20019;-71
2022/04/27 03:26:36;;;;;;;1.35;1.10;;;19.80;47.60;;;;;;6345153;28;20028;-71
2022/04/27 03:29:37;;;;;;;1.38;1.00;;;19.80;47.60;;;;;;6344031;28;20129;-72
2022/04/27 03:32:37;;;;;;;1.35;0.90;;;19.80;47.60;;;;;;6345265;28;20016;-72
2022/04/27 03:35:38;;;;;;;1.77;1.23;;;19.80;47.70;;;;;;6343930;28;20024;-71
2022/04/27 03:38:39;;;;;;;1.98;1.20;;;19.80;47.60;;;;;;6344726;28;20043;-71
2022/04/27 03:41:39;;;;;;;1.58;1.10;;;19.80;47.60;;;;;;6343707;28;20027;-71
2022/04/27 03:44:40;;;;;;;1.95;1.15;;;19.80;47.60;;;;;;6344227;28;20028;-71
2022/04/27 03:47:41;;;;;;;1.30;0.90;;;19.80;47.60;;;;;;6344150;28;20054;-71
2022/04/27 03:50:43;;;;;;;1.65;0.82;;;19.80;47.60;;;;;;6325736;28;20083;-72
2022/04/27 03:53:44;;;;;;;2.25;0.85;;;19.80;47.70;;;;;;6344308;28;20107;-72
2022/04/27 03:56:45;;;;;;;1.38;0.82;;;19.80;47.60;;;;;;6344253;28;20073;-71
2022/04/27 03:59:45;;;;;;;0.90;0.80;;;19.80;47.70;;;;;;6325688;28;20024;-71
2022/04/27 04:02:46;;;;;;;1.63;1.10;;;19.80;47.60;;;;;;6343957;28;20031;-72
2022/04/27 04:05:47;;;;;;;1.33;1.00;;;19.80;47.60;;;;;;6325338;28;20027;-71
2022/04/27 04:08:47;;;;;;;1.05;0.90;;;19.80;47.60;;;;;;6325987;28;20397;-71
2022/04/27 04:11:48;;;;;;;1.67;1.10;;;19.80;47.60;;;;;;6325834;28;20027;-71
2022/04/27 04:14:50;;;;;;;1.50;1.10;;;19.80;47.70;;;;;;6325956;28;20034;-72
2022/04/27 04:17:51;;;;;;;1.08;0.98;;;19.80;47.60;;;;;;6343525;28;20018;-71
2022/04/27 04:20:51;;;;;;;1.38;0.90;;;19.80;47.70;;;;;;6343291;28;20490;-71
2022/04/27 04:23:52;;;;;;;1.52;0.93;;;19.80;47.60;;;;;;6343522;28;20040;-71
2022/04/27 04:30:12;;;;;;;1.75;1.20;;;19.80;47.60;;;;;;6343173;28;20024;-71
2022/04/27 04:33:13;;;;;;;1.15;1.00;;;19.80;47.60;;;;;;6343620;28;20030;-71
2022/04/27 04:36:14;;;;;;;1.08;0.80;;;19.80;47.60;;;;;;6343451;28;20024;-71
2022/04/27 04:39:14;;;;;;;1.77;1.10;;;19.80;47.60;;;;;;6317434;28;20703;-72
2022/04/27 04:42:15;;;;;;;1.20;0.90;;;19.80;47.60;;;;;;6318179;28;20024;-71
2022/04/27 04:45:15;;;;;;;1.38;0.93;;;19.80;47.60;;;;;;6320051;28;20434;-71
2022/04/27 04:48:16;;;;;;;1.25;0.90;;;19.80;47.50;;;;;;6322301;28;20024;-72
2022/04/27 04:51:17;;;;;;;2.03;1.00;;;19.80;47.60;;;;;;6323406;28;20600;-72
2022/04/27 04:54:18;;;;;;;1.15;1.00;;;19.80;47.60;;;;;;6323139;28;20031;-72
2022/04/27 04:57:19;;;;;;;1.05;0.80;;;19.80;47.50;;;;;;6321635;28;20039;-71
2022/04/27 05:00:37;;;;;;;1.30;0.90;;;19.80;47.50;;;;;;6322929;28;20077;-71
2022/04/27 05:03:38;;;;;;;1.20;0.98;;;19.80;47.60;;;;;;6322785;28;20073;-71
2022/04/27 05:06:38;;;;;;;1.02;0.77;;;19.80;47.50;;;;;;6323159;28;20027;-71
2022/04/27 05:09:39;;;;;;;1.30;1.00;;;19.80;47.50;;;;;;6323207;28;20116;-71
2022/04/27 05:12:40;;;;;;;0.73;0.73;;;19.80;47.50;;;;;;6324205;28;20117;-71
2022/04/27 05:15:40;;;;;;;0.90;0.80;;;19.80;47.50;;;;;;6323289;28;20020;-72
2022/04/27 05:18:41;;;;;;;1.05;0.88;;;19.80;47.50;;;;;;6322881;28;20032;-71
2022/04/27 05:21:42;;;;;;;1.15;0.90;;;19.80;47.40;;;;;;6321039;28;20081;-71
2022/04/27 05:24:43;;;;;;;1.00;0.85;;;19.80;47.40;;;;;;6322724;28;20055;-71
2022/04/27 05:27:44;;;;;;;1.88;0.90;;;19.80;47.50;;;;;;6322434;28;20045;-72
2022/04/27 05:34:04;;;;;;;1.23;0.80;;;19.80;47.40;;;;;;6322863;28;20016;-71
2022/04/27 05:37:05;;;;;;;1.15;0.80;;;19.80;47.40;;;;;;6322201;28;20051;-71
2022/04/27 05:40:09;;;;;;;0.93;0.70;;;19.80;47.30;;;;;;6320912;28;20043;-71
2022/04/27 05:43:10;;;;;;;1.40;0.90;;;19.80;47.30;;;;;;6321015;28;20056;-71
2022/04/27 05:46:11;;;;;;;1.13;0.90;;;19.80;47.40;;;;;;6297130;28;20100;-71
2022/04/27 05:49:12;;;;;;;2.20;1.13;;;19.80;47.30;;;;;;6297301;28;20089;-71
2022/04/27 05:52:12;;;;;;;1.00;0.75;;;19.80;47.40;;;;;;6312768;28;20024;-72
2022/04/27 05:55:13;;;;;;;1.58;1.00;;;19.90;47.40;;;;;;6296614;28;20020;-71
2022/04/27 05:58:14;;;;;;;1.15;0.80;;;19.90;47.30;;;;;;6311728;28;20111;-72
2022/04/27 06:01:15;;;;;;;0.82;0.63;;;19.80;47.30;;;;;;6333888;28;20031;-71
2022/04/27 06:04:15;;;;;;;0.75;0.70;;;19.90;47.40;;;;;;6324733;28;20032;-71
2022/04/27 06:07:16;;;;;;;1.00;0.77;;;19.80;47.30;;;;;;6323686;28;20119;-70
2022/04/27 06:10:17;;;;;;;0.88;0.60;;;19.80;47.30;;;;;;6323429;28;20430;-71
2022/04/27 06:13:17;;;;;;;0.77;0.70;;;19.90;47.30;;;;;;6323955;28;20020;-71
2022/04/27 06:16:18;;;;;;;1.00;0.75;;;19.90;47.70;;;;;;6323875;28;20594;-71
2022/04/27 06:19:19;;;;;;;0.88;0.70;;;19.90;47.30;;;;;;6323773;28;20020;-71
2022/04/27 06:22:20;;;;;;;1.02;0.75;;;19.80;47.30;;;;;;6324132;28;20027;-70
2022/04/27 06:25:22;;;;;;;0.80;0.70;;;19.80;47.30;;;;;;6322657;28;20021;-71
2022/04/27 06:28:23;;;;;;;0.77;0.77;;;19.90;47.30;;;;;;6322585;28;20122;-71
2022/04/27 06:31:24;;;;;;;0.80;0.70;;;19.90;47.30;;;;;;6323418;28;20034;-71
2022/04/27 06:34:24;;;;;;;1.25;0.75;;;19.90;47.30;;;;;;6323262;28;20016;-70
2022/04/27 06:37:28;;;;;;;0.90;0.75;;;19.90;47.30;;;;;;6322968;28;20066;-71
2022/04/27 06:40:29;;;;;;;0.80;0.60;;;19.80;47.30;;;;;;6344340;28;20101;-70
2022/04/27 06:43:30;;;;;;;0.98;0.70;;;19.90;47.30;;;;;;6348203;28;20386;-71
2022/04/27 06:46:31;;;;;;;0.80;0.80;;;19.90;47.70;;;;;;6347945;28;20020;-70
2022/04/27 06:49:32;;;;;;;0.95;0.77;;;19.90;47.30;;;;;;6348002;28;20381;-71
2022/04/27 06:52:40;;;;;;;1.00;0.63;;;19.90;47.30;;;;;;6329892;28;20039;-70
2022/04/27 06:55:40;;;;;;;0.90;0.70;;;19.90;47.30;;;;;;6348392;28;20096;-71
2022/04/27 06:58:41;;;;;;;1.02;0.70;;;19.90;47.40;;;;;;6347944;28;20024;-71
2022/04/27 07:01:42;;;;;;;0.70;0.60;;;19.90;47.40;;;;;;6347924;28;20020;-70
2022/04/27 07:04:48;;;;;;;0.75;0.70;;;19.90;47.30;;;;;;6347988;28;20028;-71
2022/04/27 07:07:49;;;;;;;1.45;0.80;;;19.90;47.30;;;;;;6347539;28;20024;-71
2022/04/27 07:10:50;;;;;;;0.75;0.65;;;19.90;47.30;;;;;;6346903;28;20024;-71
2022/04/27 07:13:50;;;;;;;1.65;0.90;;;19.90;47.30;;;;;;6347785;28;20028;-71
2022/04/27 07:16:51;;;;;;;0.90;0.80;;;19.90;47.30;;;;;;6347463;28;20024;-71
2022/04/27 07:19:52;;;;;;;0.80;0.68;;;19.90;47.30;;;;;;6328982;28;20020;-71
2022/04/27 07:22:54;;;;;;;0.73;0.63;;;19.80;47.30;;;;;;6328764;28;20032;-70
2022/04/27 07:25:55;;;;;;;0.73;0.60;;;19.90;47.30;;;;;;6347048;28;20061;-71
2022/04/27 07:28:55;;;;;;;0.90;0.68;;;19.90;47.30;;;;;;6347097;28;20027;-71
2022/04/27 07:31:59;;;;;;;1.23;0.93;;;19.90;47.30;;;;;;6321834;28;20145;-70
2022/04/27 07:35:00;;;;;;;0.90;0.65;;;19.90;47.30;;;;;;6321826;28;20016;-71
2022/04/27 07:38:00;;;;;;;1.30;1.00;;;19.90;47.30;;;;;;6321040;28;20012;-71
2022/04/27 07:41:02;;;;;;;0.75;0.70;;;19.90;47.30;;;;;;6321108;28;20028;-71
2022/04/27 07:44:03;;;;;;;1.02;0.65;;;19.90;47.30;;;;;;6328376;28;20051;-72
2022/04/27 07:47:04;;;;;;;1.42;0.70;;;19.90;48.00;;;;;;6328026;28;20031;-73
2022/04/27 07:50:07;;;;;;;0.80;0.50;;;19.90;47.30;;;;;;6345995;28;20019;-71
2022/04/27 07:53:08;;;;;;;1.02;0.70;;;19.90;47.30;;;;;;6346668;28;20112;-71
2022/04/27 07:56:09;;;;;;;0.80;0.60;;;19.90;47.30;;;;;;6342743;28;20031;-71
2022/04/27 07:59:11;;;;;;;0.88;0.80;;;19.90;47.30;;;;;;6328434;28;20027;-71
2022/04/27 08:02:11;;;;;;;0.85;0.77;;;19.90;47.30;;;;;;6346080;28;20027;-71
2022/04/27 08:05:17;;;;;;;0.57;0.50;;;19.90;47.30;;;;;;6347121;28;20100;-71
2022/04/27 08:08:17;;;;;;;0.80;0.70;;;19.90;47.30;;;;;;6345994;28;20031;-70
2022/04/27 08:11:19;;;;;;;0.85;0.60;;;19.90;47.30;;;;;;6345972;28;20049;-71
2022/04/27 08:14:20;;;;;;;0.70;0.60;;;19.90;47.30;;;;;;6346130;28;20547;-71
2022/04/27 08:17:21;;;;;;;0.70;0.68;;;19.90;47.30;;;;;;6345930;28;20027;-71
2022/04/27 08:23:44;;;;;;;0.82;0.70;;;19.90;47.30;;;;;;6346002;28;20031;-71
2022/04/27 08:26:45;;;;;;;1.23;0.75;;;19.90;47.30;;;;;;6362224;27;20031;-70
2022/04/27 08:29:46;;;;;;;0.50;0.50;;;19.90;47.30;;;;;;6326792;28;20474;-71
2022/04/27 08:32:47;;;;;;;0.55;0.50;;;19.90;47.30;;;;;;6327476;28;20043;-70
2022/04/27 08:35:48;;;;;;;1.15;0.70;;;19.90;47.30;;;;;;6346099;28;20019;-70
2022/04/27 08:38:51;;;;;;;0.73;0.60;;;19.90;47.30;;;;;;6327344;28;20055;-70
2022/04/27 08:41:52;;;;;;;0.80;0.60;;;19.90;47.30;;;;;;6327400;28;20048;-71
2022/04/27 08:44:53;;;;;;;2.45;0.75;;;19.90;47.30;;;;;;6345791;28;20031;-71
2022/04/27 08:47:54;;;;;;;0.77;0.60;;;19.90;47.30;;;;;;6326948;28;20088;-71
2022/04/27 08:50:54;;;;;;;0.65;0.52;;;19.90;47.30;;;;;;6345318;28;20050;-70
2022/04/27 08:53:55;;;;;;;0.50;0.50;;;19.90;47.30;;;;;;6345276;28;20046;-71
2022/04/27 08:56:56;;;;;;;0.70;0.60;;;19.90;47.30;;;;;;6327222;28;20652;-70
2022/04/27 08:59:57;;;;;;;0.77;0.68;;;19.90;47.30;;;;;;6327216;28;20141;-71
2022/04/27 09:03:21;;;;;;;0.65;0.60;;;19.90;47.30;;;;;;6345758;28;20028;-70
2022/04/27 09:06:22;;;;;;;0.70;0.50;;;19.90;47.30;;;;;;6327172;28;20027;-71
2022/04/27 09:09:36;;;;;;;0.77;0.70;;;19.90;47.30;;;;;;6326952;28;20166;-71
2022/04/27 09:12:51;;;;;;;0.90;0.75;;;19.90;47.30;;;;;;6327684;28;20545;-70
2022/04/27 09:16:01;;;;;;;0.70;0.50;;;19.90;47.30;;;;;;6327055;28;20015;-71
2022/04/27 09:22:21;;;;;;;1.55;0.50;;;19.90;47.30;;;;;;6346152;28;20501;-71
2022/04/27 09:25:36;;;;;;;1.00;0.52;;;19.90;47.30;;;;;;6326531;28;20030;-71
2022/04/27 09:28:38;;;;;;;0.90;0.60;;;19.90;47.40;;;;;;6344870;28;20030;-71
2022/04/27 09:31:38;;;;;;;0.50;0.45;;;19.90;47.30;;;;;;6345338;28;20107;-71
2022/04/27 09:34:46;;;;;;;0.80;0.43;;;19.90;47.30;;;;;;6349767;28;20021;-72
2022/04/27 09:37:47;;;;;;;0.73;0.60;;;19.90;47.30;;;;;;6349923;28;20020;-71
2022/04/27 09:40:53;;;;;;;0.65;0.55;;;19.90;47.30;;;;;;6349031;28;20047;-71
2022/04/27 09:43:53;;;;;;;0.82;0.60;;;19.90;47.30;;;;;;6349983;28;20058;-70
2022/04/27 09:46:54;;;;;;;0.52;0.40;;;19.90;47.30;;;;;;6348761;28;20028;-70
2022/04/27 09:49:55;;;;;;;1.45;0.50;;;19.90;47.30;;;;;;6349628;28;20094;-72
2022/04/27 09:52:57;;;;;;;0.60;0.47;;;19.90;47.30;;;;;;6330801;28;20072;-71
2022/04/27 09:56:00;;;;;;;0.50;0.47;;;19.90;47.30;;;;;;6349035;28;20019;-72
2022/04/27 09:59:04;;;;;;;0.70;0.57;;;19.90;47.30;;;;;;6349115;28;20023;-71
2022/04/27 10:02:07;;;;;;;0.85;0.65;;;19.90;47.30;;;;;;6330557;28;20091;-71
2022/04/27 10:05:08;;;;;;;0.90;0.63;;;19.90;47.30;;;;;;6331255;28;20031;-71
2022/04/27 10:08:10;;;;;;;0.88;0.70;;;19.90;47.30;;;;;;6331012;28;20030;-71
2022/04/27 10:11:12;;;;;;;1.10;0.43;;;19.90;47.30;;;;;;6348613;28;20091;-71
2022/04/27 10:14:13;;;;;;;0.60;0.40;;;19.90;47.30;;;;;;6348763;28;20093;-71
2022/04/27 10:17:15;;;;;;;0.40;0.40;;;19.90;47.30;;;;;;6330341;28;20024;-71
2022/04/27 10:20:33;;;;;;;0.50;0.45;;;19.90;47.30;;;;;;6364185;27;20429;-70
2022/04/27 10:23:46;;;;;;;0.45;0.40;;;19.90;47.40;;;;;;6330321;28;20535;-71
2022/04/27 10:26:46;;;;;;;0.28;0.20;;;19.90;47.40;;;;;;6348241;28;20024;-71
2022/04/27 10:29:59;;;;;;;0.43;0.43;;;19.90;47.40;;;;;;6341416;28;20363;-71
2022/04/27 10:33:00;;;;;;;0.50;0.45;;;19.90;47.40;;;;;;6323084;28;20027;-70
2022/04/27 10:36:29;;;;;;;0.93;0.63;;;19.90;47.40;;;;;;6323163;28;20429;-71
2022/04/27 10:39:32;;;;;;;0.50;0.40;;;19.90;47.40;;;;;;6307722;28;20058;-71
2022/04/27 10:42:33;;;;;;;0.63;0.50;;;19.90;47.40;;;;;;6348240;28;20020;-71
2022/04/27 10:45:35;;;;;;;0.50;0.50;;;19.90;47.40;;;;;;6329790;28;20400;-70
2022/04/27 10:48:48;;;;;;;0.55;0.40;;;19.90;47.50;;;;;;6329856;28;20023;-71
2022/04/27 10:51:59;;;;;;;0.50;0.50;;;19.90;47.50;;;;;;6364205;27;20506;-71
2022/04/27 10:55:03;;;;;;;0.90;0.57;;;19.90;47.40;;;;;;6347590;27;20111;-70
2022/04/27 10:58:18;;;;;;;0.70;0.50;;;19.90;47.40;;;;;;6323031;28;20024;-71
2022/04/27 11:01:23;;;;;;;0.60;0.40;;;19.90;47.50;;;;;;6304575;28;20028;-71
2022/04/27 11:04:33;;;;;;;0.45;0.45;;;19.90;47.40;;;;;;6323254;28;20584;-73
2022/04/27 11:08:02;;;;;;;0.50;0.47;;;19.90;47.40;;;;;;6321963;28;20024;-70
2022/04/27 11:11:07;;;;;;;0.40;0.40;;;19.90;47.40;;;;;;6281288;28;20072;-71
2022/04/27 11:14:12;;;;;;;0.50;0.50;;;19.90;47.50;;;;;;6322357;28;20032;-71
2022/04/27 11:17:27;;;;;;;0.50;0.40;;;19.90;47.50;;;;;;6321131;28;20458;-71
2022/04/27 11:20:38;;;;;;;0.60;0.55;;;19.90;47.40;;;;;;6303438;28;20024;-71
2022/04/27 11:23:39;;;;;;;0.70;0.57;;;19.90;47.50;;;;;;6321710;28;20478;-71
2022/04/27 11:26:42;;;;;;;0.38;0.35;;;19.90;47.50;;;;;;6321821;28;20043;-71
2022/04/27 11:29:42;;;;;;;0.38;0.38;;;19.90;47.40;;;;;;6326817;28;20019;-71
2022/04/27 11:32:50;;;;;;;0.40;0.40;;;19.90;47.50;;;;;;6347613;28;20043;-71
2022/04/27 11:35:50;;;;;;;3.22;0.65;;;19.90;47.50;;;;;;6347513;28;20024;-70
2022/04/27 11:38:53;;;;;;;0.55;0.43;;;19.90;47.50;;;;;;6346634;28;20565;-70
2022/04/27 11:41:58;;;;;;;0.43;0.43;;;19.90;47.50;;;;;;6346488;28;20028;-71
2022/04/27 11:45:00;;;;;;;0.77;0.55;;;19.90;47.50;;;;;;6328373;28;20080;-71
2022/04/27 11:48:03;;;;;;;0.85;0.55;;;19.90;47.50;;;;;;6346296;28;20028;-71
2022/04/27 11:51:06;;;;;;;0.60;0.40;;;19.90;47.50;;;;;;6346499;28;20032;-71
2022/04/27 11:54:08;;;;;;;0.50;0.50;;;19.90;47.50;;;;;;6345909;28;20020;-70
2022/04/27 11:57:12;;;;;;;0.93;0.45;;;19.90;47.50;;;;;;6328322;28;20019;-71
2022/04/27 12:00:20;;;;;;;0.50;0.40;;;19.90;47.60;;;;;;6345964;28;20031;-70
2022/04/27 12:03:22;;;;;;;0.82;0.40;;;19.90;47.50;;;;;;6347081;28;20030;-71
2022/04/27 12:06:26;;;;;;;0.43;0.40;;;19.90;47.50;;;;;;6343028;28;20042;-71
2022/04/27 12:09:26;;;;;;;0.80;0.60;;;19.90;47.60;;;;;;6345859;28;20136;-71
2022/04/27 12:12:28;;;;;;;0.30;0.30;;;19.90;47.70;;;;;;6327895;28;20076;-70
2022/04/27 12:15:29;;;;;;;0.88;0.60;;;19.90;47.60;;;;;;6345757;28;20534;-71
2022/04/27 12:18:31;;;;;;;0.82;0.40;;;19.90;47.60;;;;;;6327472;28;20019;-71
2022/04/27 12:21:32;;;;;;;0.80;0.50;;;19.90;47.60;;;;;;6327807;28;20072;-71
2022/04/27 12:24:45;;;;;;;0.52;0.50;;;19.90;47.60;;;;;;6345711;28;20386;-71
2022/04/27 12:27:47;;;;;;;0.40;0.40;;;19.90;47.60;;;;;;6327286;28;20034;-71
2022/04/27 12:30:58;;;;;;;0.70;0.50;;;19.90;47.70;;;;;;6334370;28;20016;-70
2022/04/27 12:33:59;;;;;;;0.50;0.40;;;19.90;47.60;;;;;;6345814;28;20102;-71
2022/04/27 12:40:19;;;;;;;0.60;0.40;;;19.90;47.80;;;;;;6345568;28;20047;-71
2022/04/27 12:43:23;;;;;;;0.45;0.45;;;19.90;47.70;;;;;;6345315;28;20027;-71
2022/04/27 12:46:25;;;;;;;0.88;0.60;;;19.90;47.70;;;;;;6327682;28;20123;-70
2022/04/27 12:49:40;;;;;;;0.60;0.50;;;19.90;47.70;;;;;;6327679;28;20031;-71
2022/04/27 12:52:44;;;;;;;0.40;0.40;;;19.90;48.40;;;;;;6327641;28;20027;-71
2022/04/27 12:55:59;;;;;;;0.40;0.40;;;19.90;47.80;;;;;;6327611;28;20038;-71
2022/04/27 12:59:09;;;;;;;0.50;0.50;;;19.90;47.70;;;;;;6345739;28;20106;-70
2022/04/27 13:02:11;;;;;;;0.52;0.50;;;19.90;47.70;;;;;;6326975;28;20031;-70
2022/04/27 13:05:12;;;;;;;0.40;0.40;;;19.90;47.80;;;;;;6345678;28;20026;-71
2022/04/27 13:08:13;;;;;;;0.32;0.32;;;19.90;47.80;;;;;;6331697;28;20024;-70
2022/04/27 13:14:33;;;;;;;0.35;0.35;;;19.90;47.80;;;;;;6350874;28;20529;-70
2022/04/27 13:17:33;;;;;;;0.50;0.40;;;19.90;47.80;;;;;;6350670;28;20049;-71
2022/04/27 13:20:34;;;;;;;0.30;0.30;;;19.90;47.80;;;;;;6349854;28;20036;-71
2022/04/27 13:23:36;;;;;;;0.35;0.35;;;19.90;47.80;;;;;;6350612;28;20028;-70
2022/04/27 13:26:37;;;;;;;0.40;0.30;;;19.90;47.80;;;;;;6350267;28;20033;-70
2022/04/27 13:29:38;;;;;;;0.38;0.35;;;19.90;47.80;;;;;;6344669;28;20102;-71
2022/04/27 13:32:39;;;;;;;0.40;0.40;;;19.90;47.80;;;;;;6325764;28;20030;-70
2022/04/27 13:35:40;;;;;;;0.52;0.32;;;19.90;47.80;;;;;;6307290;28;20051;-71
2022/04/27 13:38:40;;;;;;;0.20;0.20;;;19.80;47.70;;;;;;6323986;28;20077;-70
2022/04/27 13:41:41;;;;;;;0.43;0.43;;;19.80;47.90;;;;;;6306355;28;20024;-70
2022/04/27 13:44:41;;;;;;;0.73;0.40;;;19.90;47.90;;;;;;6318964;28;20102;-71
2022/04/27 13:47:43;;;;;;;0.40;0.40;;;19.90;47.80;;;;;;6331126;28;20034;-70
2022/04/27 13:50:44;;;;;;;0.50;0.50;;;19.90;47.80;;;;;;6349294;28;20123;-70
2022/04/27 13:53:44;;;;;;;0.63;0.40;;;19.90;47.90;;;;;;6331001;28;20028;-70
2022/04/27 13:56:45;;;;;;;0.50;0.40;;;19.90;47.90;;;;;;6351337;28;20015;-69
2022/04/27 13:59:46;;;;;;;0.30;0.30;;;19.90;47.80;;;;;;6350509;28;20397;-69
2022/04/27 14:02:46;;;;;;;0.52;0.50;;;19.90;47.90;;;;;;6350190;28;20432;-69
2022/04/27 14:05:49;;;;;;;0.43;0.40;;;19.90;47.90;;;;;;6350217;28;20064;-68
2022/04/27 14:08:51;;;;;;;0.40;0.40;;;19.90;47.90;;;;;;6350136;28;20474;-69
2022/04/27 14:15:11;;;;;;;0.40;0.40;;;19.90;48.00;;;;;;6350354;28;20032;-68
2022/04/27 14:18:14;;;;;;;0.30;0.30;;;19.90;47.90;;;;;;6349317;28;20537;-69
2022/04/27 14:21:15;;;;;;;0.32;0.30;;;19.90;47.90;;;;;;6350019;28;20015;-69
2022/04/27 14:24:17;;;;;;;0.40;0.40;;;19.90;47.90;;;;;;6349881;28;20015;-69
2022/04/27 14:27:18;;;;;;;0.30;0.30;;;19.90;47.90;;;;;;6349748;28;20038;-69
2022/04/27 14:30:19;;;;;;;0.75;0.30;;;19.90;47.90;;;;;;6349778;28;20110;-69
2022/04/27 14:33:20;;;;;;;0.60;0.30;;;19.90;47.90;;;;;;6331795;28;20389;-69
2022/04/27 14:36:21;;;;;;;0.50;0.40;;;19.80;47.80;;;;;;6350752;28;20024;-69
2022/04/27 14:39:22;;;;;;;0.30;0.30;;;19.90;47.90;;;;;;6349701;28;20069;-68
2022/04/27 14:42:23;;;;;;;0.57;0.40;;;19.80;47.80;;;;;;6349606;28;20527;-69
2022/04/27 14:45:24;;;;;;;0.30;0.30;;;19.90;47.90;;;;;;6349694;28;20034;-68
2022/04/27 14:48:24;;;;;;;0.52;0.40;;;19.90;48.00;;;;;;6349379;28;20516;-68
2022/04/27 14:51:25;;;;;;;0.50;0.40;;;19.80;47.80;;;;;;6349605;28;20073;-69
2022/04/27 14:54:25;;;;;;;0.40;0.40;;;19.90;48.00;;;;;;6349900;28;20023;-69
2022/04/27 14:57:26;;;;;;;0.32;0.32;;;19.90;48.00;;;;;;6330848;28;20027;-68
2022/04/27 15:00:27;;;;;;;0.20;0.20;;;19.90;48.00;;;;;;6349253;28;20577;-69
2022/04/27 15:03:28;;;;;;;0.22;0.22;;;19.90;48.00;;;;;;6348853;28;20042;-69
2022/04/27 15:06:30;;;;;;;0.45;0.40;;;19.90;48.00;;;;;;6330697;28;20027;-69
2022/04/27 15:09:31;;;;;;;0.45;0.40;;;19.90;48.00;;;;;;6330349;28;20039;-69
2022/04/27 15:12:32;;;;;;;0.20;0.20;;;19.90;48.00;;;;;;6330581;28;20012;-69
2022/04/27 15:15:33;;;;;;;0.60;0.45;;;19.90;48.00;;;;;;6348703;28;20052;-69
2022/04/27 15:18:34;;;;;;;0.30;0.30;;;19.90;48.00;;;;;;6348940;28;20031;-69
2022/04/27 15:24:55;;;;;;;0.30;0.30;;;19.80;47.90;;;;;;6347528;28;20024;-73
2022/04/27 15:27:57;;;;;;;0.38;0.38;;;19.90;48.70;;;;;;6346964;28;20058;-72
2022/04/27 15:30:57;;;;;;;0.40;0.30;;;19.90;48.10;;;;;;6324540;28;20138;-73
2022/04/27 15:33:59;;;;;;;0.38;0.38;;;19.80;47.90;;;;;;6328609;28;20478;-72
2022/04/27 15:37:00;;;;;;;0.30;0.30;;;19.80;48.00;;;;;;6328630;28;20016;-72
2022/04/27 15:40:00;;;;;;;1.23;0.38;;;19.80;47.90;;;;;;6328584;28;20050;-72
2022/04/27 15:43:06;;;;;;;0.60;0.30;;;19.80;48.00;;;;;;6328444;28;20072;-73
2022/04/27 15:46:08;;;;;;;0.52;0.30;;;19.90;48.00;;;;;;6328631;28;20110;-72
2022/04/27 15:49:11;;;;;;;0.25;0.25;;;19.80;47.90;;;;;;6328761;28;20044;-72
2022/04/27 15:52:16;;;;;;;0.47;0.40;;;19.80;48.00;;;;;;6347099;28;20475;-73
2022/04/27 15:55:17;;;;;;;0.30;0.30;;;19.90;48.10;;;;;;6346836;28;20027;-72
2022/04/27 15:58:18;;;;;;;0.20;0.20;;;19.90;48.00;;;;;;6329053;28;20482;-72
2022/04/27 16:01:19;;;;;;;0.30;0.30;;;19.80;48.00;;;;;;6346617;28;20027;-73
2022/04/27 16:04:19;;;;;;;0.20;0.20;;;19.90;48.10;;;;;;6346679;28;20027;-72
2022/04/27 16:07:20;;;;;;;0.30;0.30;;;19.90;48.10;;;;;;6327791;28;20073;-72
2022/04/27 16:10:21;;;;;;;0.70;0.40;;;19.90;48.10;;;;;;6328377;28;20483;-73
2022/04/27 16:13:21;;;;;;;0.35;0.35;;;19.90;48.10;;;;;;6346188;28;20019;-73
2022/04/27 16:16:22;;;;;;;0.25;0.25;;;19.90;48.00;;;;;;6345142;28;20034;-73
2022/04/27 16:19:23;;;;;;;0.30;0.30;;;19.90;48.10;;;;;;6326033;28;20118;-73
2022/04/27 16:25:43;;;;;;;0.40;0.32;;;19.90;48.10;;;;;;6344373;28;20027;-73
2022/04/27 16:28:44;;;;;;;0.30;0.30;;;19.80;48.00;;;;;;6343987;28;20038;-68